Time;durP1;ratioP1;P1;durP2;ratioP2;P2;SDS_P1;SDS_P2;PMS_P1;PMS_P2;Temp;Humidity;BMP_temperature;BMP_pressure;BME280_temperature;BME280_humidity;BME280_pressure;Samples;Min_cycle;Max_cycle;Signal;HPM_P1;HPM_P2
2021/04/20 00:01:02;;;;;;;19.20;13.48;;;9.50;99.90;;;;;;5092785;28;20031;-69
2021/04/20 00:03:27;;;;;;;18.13;12.98;;;9.60;99.90;;;;;;5092989;28;20020;-69
2021/04/20 00:05:53;;;;;;;26.35;14.07;;;9.60;99.90;;;;;;5093275;28;20384;-70
2021/04/20 00:08:19;;;;;;;20.10;12.93;;;9.60;99.90;;;;;;5092340;28;20020;-70
2021/04/20 00:10:44;;;;;;;18.50;13.57;;;9.60;99.90;;;;;;5093470;28;20024;-70
2021/04/20 00:13:11;;;;;;;21.13;14.10;;;9.60;99.90;;;;;;5092449;28;20020;-70
2021/04/20 00:15:37;;;;;;;19.50;13.23;;;9.50;99.90;;;;;;5092467;28;20165;-70
2021/04/20 00:18:07;;;;;;;24.00;15.32;;;9.60;99.90;;;;;;5092070;28;20477;-70
2021/04/20 00:20:34;;;;;;;22.05;15.57;;;9.50;99.90;;;;;;5074736;28;20020;-70
2021/04/20 00:23:00;;;;;;;21.30;15.30;;;9.40;99.90;;;;;;5092655;28;20038;-70
2021/04/20 00:25:26;;;;;;;16.77;13.60;;;9.50;99.90;;;;;;5073560;28;20131;-70
2021/04/20 00:27:51;;;;;;;20.60;13.90;;;9.40;99.90;;;;;;5092673;28;20027;-70
2021/04/20 00:30:18;;;;;;;19.45;14.55;;;9.40;99.90;;;;;;5091936;28;20107;-70
2021/04/20 00:32:44;;;;;;;22.67;15.18;;;9.30;99.90;;;;;;5092555;28;20420;-70
2021/04/20 00:35:10;;;;;;;20.60;15.52;;;9.20;99.90;;;;;;5092057;28;20035;-70
2021/04/20 00:37:36;;;;;;;18.92;13.43;;;9.30;99.90;;;;;;5074295;28;20028;-70
2021/04/20 00:40:04;;;;;;;18.33;13.35;;;9.30;99.90;;;;;;5074261;28;20027;-70
2021/04/20 00:42:30;;;;;;;19.90;13.35;;;9.30;99.90;;;;;;5074513;28;20035;-70
2021/04/20 00:44:55;;;;;;;21.17;13.95;;;9.30;99.90;;;;;;5074359;28;20465;-70
2021/04/20 00:47:21;;;;;;;19.40;14.10;;;9.30;99.90;;;;;;5073666;28;20093;-70
2021/04/20 00:49:47;;;;;;;19.77;13.40;;;9.20;99.90;;;;;;5074289;28;20035;-71
2021/04/20 00:52:12;;;;;;;17.45;13.15;;;9.30;99.90;;;;;;5073714;28;20051;-70
2021/04/20 00:54:38;;;;;;;24.63;14.32;;;9.40;99.90;;;;;;5092178;28;20073;-70
2021/04/20 00:57:05;;;;;;;19.05;13.07;;;9.40;99.90;;;;;;5092408;28;20028;-70
2021/04/20 00:59:30;;;;;;;20.48;12.18;;;9.10;99.90;;;;;;5074128;28;20024;-70
2021/04/20 01:01:56;;;;;;;17.58;13.05;;;9.10;99.90;;;;;;5092383;28;20372;-71
2021/04/20 01:04:21;;;;;;;18.80;12.85;;;9.20;99.90;;;;;;5091566;28;20028;-71
2021/04/20 01:06:48;;;;;;;19.65;12.73;;;9.20;99.90;;;;;;5073888;28;20032;-70
2021/04/20 01:09:17;;;;;;;19.33;12.88;;;9.10;99.90;;;;;;5091608;28;20028;-70
2021/04/20 01:11:43;;;;;;;18.40;13.27;;;9.20;99.90;;;;;;5073882;28;20020;-70
2021/04/20 01:14:09;;;;;;;21.80;15.20;;;9.10;99.90;;;;;;5090862;28;20056;-71
2021/04/20 01:16:36;;;;;;;17.80;12.55;;;9.10;99.90;;;;;;5073673;28;20035;-69
2021/04/20 01:19:04;;;;;;;18.55;13.90;;;9.20;99.90;;;;;;5073656;28;20051;-69
2021/04/20 01:21:32;;;;;;;18.75;13.27;;;9.10;99.90;;;;;;5091034;28;20077;-70
2021/04/20 01:24:17;;;;;;;18.63;13.32;;;9.00;99.90;;;;;;5091788;28;20032;-70
2021/04/20 01:26:46;;;;;;;17.95;13.20;;;9.00;99.90;;;;;;5091650;28;20173;-71
2021/04/20 01:29:12;;;;;;;21.17;14.23;;;9.00;99.90;;;;;;5091048;28;20035;-69
2021/04/20 01:31:41;;;;;;;22.17;13.88;;;9.00;99.90;;;;;;5073402;28;20081;-70
2021/04/20 01:34:08;;;;;;;20.17;13.82;;;8.90;99.90;;;;;;5090948;28;20031;-70
2021/04/20 01:36:34;;;;;;;21.60;15.45;;;8.90;99.90;;;;;;5090666;28;20051;-69
2021/04/20 01:39:00;;;;;;;23.55;13.93;;;8.90;99.90;;;;;;5073328;28;20032;-69
2021/04/20 01:41:27;;;;;;;20.33;14.50;;;8.90;99.90;;;;;;5072455;28;20024;-70
2021/04/20 01:43:56;;;;;;;23.48;15.13;;;8.80;99.90;;;;;;5091167;28;20064;-70
2021/04/20 01:46:22;;;;;;;21.77;14.65;;;8.90;99.90;;;;;;5090560;28;20081;-70
2021/04/20 01:48:49;;;;;;;22.27;14.40;;;9.00;99.90;;;;;;5091096;28;20073;-71
2021/04/20 01:51:18;;;;;;;24.17;16.08;;;8.90;99.90;;;;;;5090386;28;20161;-70
2021/04/20 01:53:46;;;;;;;20.30;14.40;;;8.80;99.90;;;;;;5090891;28;20028;-71
2021/04/20 01:56:12;;;;;;;20.77;15.77;;;8.90;99.90;;;;;;5090226;28;20115;-70
2021/04/20 01:58:39;;;;;;;24.23;15.50;;;8.80;99.90;;;;;;5073093;28;20036;-70
2021/04/20 02:01:27;;;;;;;21.73;14.35;;;8.80;99.90;;;;;;5072955;28;20448;-70
2021/04/20 02:03:53;;;;;;;23.25;16.20;;;8.80;99.90;;;;;;5072631;28;20035;-71
2021/04/20 02:06:22;;;;;;;26.65;15.68;;;8.70;99.90;;;;;;5090120;28;20077;-71
2021/04/20 02:08:48;;;;;;;24.70;15.55;;;8.60;99.90;;;;;;5090744;28;20462;-71
2021/04/20 02:11:18;;;;;;;22.13;15.65;;;8.60;99.90;;;;;;5072201;28;20063;-70
2021/04/20 02:13:45;;;;;;;21.25;14.82;;;8.60;99.90;;;;;;5090597;28;20163;-70
2021/04/20 02:16:12;;;;;;;23.05;15.18;;;8.50;99.90;;;;;;5090083;28;20165;-70
2021/04/20 02:18:44;;;;;;;26.58;16.67;;;8.50;99.90;;;;;;5072628;28;20162;-70
2021/04/20 02:21:12;;;;;;;23.60;15.20;;;8.50;99.90;;;;;;5090748;28;20194;-69
2021/04/20 02:23:38;;;;;;;24.55;15.65;;;8.40;99.90;;;;;;5072592;28;20028;-70
2021/04/20 02:26:08;;;;;;;22.20;15.27;;;8.50;99.90;;;;;;5090860;28;20024;-71
2021/04/20 02:28:34;;;;;;;22.07;16.67;;;8.40;99.90;;;;;;5072030;28;20028;-70
2021/04/20 02:31:01;;;;;;;22.02;14.95;;;8.40;99.90;;;;;;5072562;28;20277;-70
2021/04/20 02:33:28;;;;;;;23.55;16.70;;;8.40;99.90;;;;;;5090155;28;20099;-70
2021/04/20 02:35:59;;;;;;;27.90;16.60;;;8.30;99.90;;;;;;5090740;28;20075;-70
2021/04/20 02:38:26;;;;;;;23.75;15.43;;;8.20;99.90;;;;;;5071801;28;20053;-71
2021/04/20 02:40:56;;;;;;;20.85;14.43;;;8.20;99.90;;;;;;5090462;28;20460;-70
2021/04/20 02:43:23;;;;;;;23.55;15.13;;;8.10;99.90;;;;;;5089915;28;20476;-71
2021/04/20 02:45:53;;;;;;;22.60;15.88;;;8.00;99.90;;;;;;5090441;28;20071;-70
2021/04/20 02:48:19;;;;;;;19.40;14.13;;;7.90;99.90;;;;;;5092080;28;20042;-70
2021/04/20 02:50:46;;;;;;;22.35;15.15;;;7.80;99.90;;;;;;5076537;28;20020;-71
2021/04/20 02:53:15;;;;;;;23.17;17.45;;;7.80;99.90;;;;;;5076292;28;20028;-70
2021/04/20 02:55:41;;;;;;;24.20;14.57;;;7.70;99.90;;;;;;5076379;28;20047;-70
2021/04/20 02:58:16;;;;;;;22.70;14.45;;;7.90;99.90;;;;;;5094653;28;20024;-70
2021/04/20 03:00:49;;;;;;;23.70;15.93;;;7.90;99.90;;;;;;5094709;28;20077;-71
2021/04/20 03:03:16;;;;;;;21.45;14.95;;;7.90;99.90;;;;;;5075814;28;20028;-70
2021/04/20 03:05:42;;;;;;;21.92;15.00;;;7.80;99.90;;;;;;5076507;28;20028;-71
2021/04/20 03:08:08;;;;;;;23.23;13.82;;;7.80;99.90;;;;;;5094636;28;20020;-70
2021/04/20 03:10:38;;;;;;;23.23;15.20;;;8.00;99.90;;;;;;5093844;28;20024;-70
2021/04/20 03:13:07;;;;;;;24.95;14.95;;;7.90;99.90;;;;;;5094373;28;20020;-71
2021/04/20 03:15:34;;;;;;;25.90;15.93;;;7.90;99.90;;;;;;5093423;28;20383;-70
2021/04/20 03:18:00;;;;;;;22.13;14.68;;;7.90;99.90;;;;;;5094027;28;20039;-70
2021/04/20 03:20:25;;;;;;;22.27;15.07;;;8.00;99.90;;;;;;5075104;28;20028;-69
2021/04/20 03:22:51;;;;;;;21.85;15.88;;;8.00;99.90;;;;;;5094175;28;20503;-70
2021/04/20 03:25:24;;;;;;;24.13;15.85;;;7.90;99.90;;;;;;5075356;28;20081;-70
2021/04/20 03:27:56;;;;;;;18.92;14.10;;;7.80;99.90;;;;;;5075497;28;20405;-70
2021/04/20 03:30:30;;;;;;;20.58;14.23;;;8.00;99.90;;;;;;5093830;28;20389;-71
2021/04/20 03:33:14;;;;;;;23.52;15.10;;;8.00;99.90;;;;;;5075907;28;20032;-70
2021/04/20 03:36:04;;;;;;;23.13;15.07;;;7.90;99.90;;;;;;5075879;28;20040;-70
2021/04/20 03:38:46;;;;;;;24.90;15.73;;;7.90;99.90;;;;;;5075169;28;20032;-71
2021/04/20 03:41:23;;;;;;;28.60;16.17;;;7.80;99.90;;;;;;5094301;28;20016;-70
2021/04/20 03:43:52;;;;;;;25.80;17.05;;;7.80;99.90;;;;;;5075401;28;20051;-70
2021/04/20 03:46:23;;;;;;;25.20;16.15;;;7.60;99.90;;;;;;5092842;28;20028;-71
2021/04/20 03:49:11;;;;;;;30.02;16.50;;;7.50;99.90;;;;;;5093709;28;20024;-70
2021/04/20 03:51:40;;;;;;;24.70;16.23;;;7.60;99.90;;;;;;5075221;28;20044;-70
2021/04/20 03:54:08;;;;;;;22.75;15.13;;;7.60;99.90;;;;;;5093495;28;20180;-69
2021/04/20 03:56:35;;;;;;;23.25;15.18;;;7.60;99.90;;;;;;5074567;28;20123;-70
2021/04/20 03:59:05;;;;;;;27.40;16.88;;;7.50;99.90;;;;;;5074649;28;20028;-70
2021/04/20 04:01:37;;;;;;;28.20;16.55;;;7.50;99.90;;;;;;5092645;28;20024;-70
2021/04/20 04:04:07;;;;;;;26.48;16.98;;;7.50;99.90;;;;;;5093866;28;20104;-70
2021/04/20 04:06:36;;;;;;;24.60;16.27;;;7.70;99.90;;;;;;5092890;28;20448;-71
2021/04/20 04:09:02;;;;;;;25.48;17.08;;;7.70;99.90;;;;;;5075009;28;20111;-70
2021/04/20 04:11:33;;;;;;;31.83;18.13;;;7.70;99.90;;;;;;5074304;28;20063;-70
2021/04/20 04:14:02;;;;;;;29.48;17.20;;;7.80;99.90;;;;;;5093186;28;20502;-71
2021/04/20 04:16:31;;;;;;;28.95;17.42;;;7.70;99.90;;;;;;5092594;28;20032;-71
2021/04/20 04:18:59;;;;;;;27.20;17.08;;;7.70;99.90;;;;;;5093277;28;20051;-71
2021/04/20 04:21:31;;;;;;;25.50;17.58;;;7.60;99.90;;;;;;5074079;28;20081;-71
2021/04/20 04:23:59;;;;;;;;;;;7.70;99.90;;;;;;5093553;28;20027;-71
2021/04/20 04:26:30;;;;;;;31.35;17.88;;;7.60;99.90;;;;;;5074327;28;19904;-72
2021/04/20 04:29:01;;;;;;;37.00;20.05;;;7.30;99.90;;;;;;5075049;28;20020;-71
2021/04/20 04:31:29;;;;;;;30.77;18.67;;;7.40;99.90;;;;;;5092376;28;20084;-71
2021/04/20 04:33:56;;;;;;;34.65;20.08;;;7.40;99.90;;;;;;5092895;28;20040;-71
2021/04/20 04:36:22;;;;;;;37.15;20.80;;;7.30;99.90;;;;;;5092141;28;20032;-71
2021/04/20 04:38:48;;;;;;;37.47;20.48;;;7.30;99.90;;;;;;5074568;28;20024;-71
2021/04/20 04:41:14;;;;;;;36.92;19.73;;;7.20;99.90;;;;;;5092781;28;20465;-70
2021/04/20 04:43:42;;;;;;;37.40;20.65;;;7.40;99.90;;;;;;5073753;28;20478;-71
2021/04/20 04:46:08;;;;;;;35.60;19.63;;;7.50;99.90;;;;;;5074501;28;20118;-71
2021/04/20 04:48:36;;;;;;;34.22;20.58;;;7.50;99.90;;;;;;5074153;28;20033;-71
2021/04/20 04:51:04;;;;;;;30.48;18.02;;;7.60;99.90;;;;;;5074615;28;20059;-71
2021/04/20 04:53:32;;;;;;;39.55;20.35;;;7.40;99.90;;;;;;5091940;28;20036;-70
2021/04/20 04:56:01;;;;;;;38.67;20.55;;;7.40;99.90;;;;;;5092566;28;20349;-71
2021/04/20 04:58:30;;;;;;;40.05;22.02;;;7.40;99.90;;;;;;5073936;28;20361;-71
2021/04/20 05:00:59;;;;;;;37.03;21.17;;;7.20;99.90;;;;;;5092183;28;20111;-71
2021/04/20 05:03:24;;;;;;;40.55;21.52;;;7.20;99.90;;;;;;5073378;28;20541;-70
2021/04/20 05:05:59;;;;;;;57.42;22.25;;;7.20;99.90;;;;;;5074135;28;20127;-70
2021/04/20 05:08:25;;;;;;;38.25;21.40;;;7.20;99.90;;;;;;5073433;28;20031;-70
2021/04/20 05:10:50;;;;;;;38.10;22.27;;;7.30;99.90;;;;;;5092052;28;20036;-71
2021/04/20 05:13:17;;;;;;;41.40;21.10;;;7.40;99.90;;;;;;5073654;28;20020;-69
2021/04/20 05:15:43;;;;;;;34.92;20.65;;;7.50;99.90;;;;;;5089241;28;20135;-69
2021/04/20 05:18:13;;;;;;;37.38;21.05;;;7.70;99.90;;;;;;5091946;28;20060;-69
2021/04/20 05:20:44;;;;;;;29.77;18.90;;;7.70;99.90;;;;;;5089786;28;20036;-70
2021/04/20 05:23:13;;;;;;;31.00;18.42;;;7.80;99.90;;;;;;5090612;28;20412;-70
2021/04/20 05:25:39;;;;;;;26.40;17.17;;;7.80;99.90;;;;;;5090788;28;20040;-70
2021/04/20 05:28:06;;;;;;;29.40;17.25;;;7.80;99.90;;;;;;5090336;28;20031;-70
2021/04/20 05:30:32;;;;;;;28.20;17.50;;;7.90;99.90;;;;;;5091362;28;20133;-70
2021/04/20 05:32:59;;;;;;;26.05;16.63;;;7.90;99.90;;;;;;5091305;28;20118;-71
2021/04/20 05:35:26;;;;;;;33.58;19.17;;;7.90;99.90;;;;;;5092631;28;20028;-70
2021/04/20 05:37:52;;;;;;;26.35;17.60;;;8.00;99.90;;;;;;5092286;28;20103;-71
2021/04/20 05:40:22;;;;;;;26.25;17.38;;;7.90;99.90;;;;;;5091340;28;20031;-73
2021/04/20 05:42:50;;;;;;;31.30;18.30;;;8.00;99.90;;;;;;5092252;28;20020;-71
2021/04/20 05:45:16;;;;;;;33.05;18.80;;;8.10;99.90;;;;;;5073399;28;20040;-70
2021/04/20 05:47:47;;;;;;;35.03;18.80;;;8.10;99.90;;;;;;5089977;28;20078;-69
2021/04/20 05:50:30;;;;;;;32.00;18.80;;;8.30;99.90;;;;;;5088626;28;20042;-71
2021/04/20 05:52:57;;;;;;;42.00;19.42;;;8.30;99.90;;;;;;5089989;28;20461;-70
2021/04/20 05:55:24;;;;;;;36.58;19.45;;;8.00;99.90;;;;;;5087283;28;20039;-71
2021/04/20 05:57:52;;;;;;;31.88;18.90;;;7.60;99.90;;;;;;5084937;28;20028;-68
2021/04/20 06:00:19;;;;;;;31.88;18.05;;;7.60;99.90;;;;;;5102086;28;20084;-70
2021/04/20 06:02:47;;;;;;;27.15;16.65;;;7.60;99.90;;;;;;5102065;28;20388;-69
2021/04/20 06:05:14;;;;;;;30.20;18.17;;;7.70;99.90;;;;;;5088388;28;20085;-69
2021/04/20 06:07:47;;;;;;;30.77;19.02;;;8.00;99.90;;;;;;5087836;28;20062;-69
2021/04/20 06:10:14;;;;;;;37.97;20.77;;;8.20;99.90;;;;;;5089852;28;20118;-69
2021/04/20 06:12:41;;;;;;;35.65;21.15;;;8.30;99.90;;;;;;5087707;28;20214;-69
2021/04/20 06:15:08;;;;;;;32.40;19.60;;;8.40;99.90;;;;;;5083415;28;20139;-69
2021/04/20 06:17:37;;;;;;;35.00;20.30;;;8.30;99.90;;;;;;5067527;28;20590;-68
2021/04/20 06:20:05;;;;;;;41.70;20.85;;;8.10;99.90;;;;;;5068013;28;20446;-69
2021/04/20 06:22:31;;;;;;;30.65;19.52;;;8.10;99.90;;;;;;5068303;28;20025;-70
2021/04/20 06:24:57;;;;;;;33.53;20.50;;;8.00;99.90;;;;;;5067603;28;20334;-72
2021/04/20 06:27:23;;;;;;;37.70;20.77;;;8.30;99.90;;;;;;5078665;28;20039;-66
2021/04/20 06:29:49;;;;;;;34.70;19.83;;;9.00;99.90;;;;;;5088090;28;20024;-63
2021/04/20 06:32:15;;;;;;;35.47;20.30;;;9.30;99.90;;;;;;5088107;28;20059;-64
2021/04/20 06:34:41;;;;;;;30.08;18.67;;;9.40;99.90;;;;;;5087286;28;20107;-67
2021/04/20 06:37:08;;;;;;;31.85;19.15;;;9.80;99.90;;;;;;5089276;28;20035;-65
2021/04/20 06:39:35;;;;;;;32.15;18.50;;;9.80;99.90;;;;;;5088677;28;20032;-66
2021/04/20 06:42:03;;;;;;;31.30;19.10;;;10.10;99.90;;;;;;5089250;28;20035;-64
2021/04/20 06:44:57;;;;;;;28.23;16.40;;;10.10;99.90;;;;;;5088624;28;20090;-64
2021/04/20 06:47:27;;;;;;;30.25;17.92;;;10.70;99.90;;;;;;5062001;28;20045;-71
2021/04/20 06:50:01;;;;;;;27.85;17.33;;;10.70;99.90;;;;;;5069007;28;20055;-63
2021/04/20 06:52:37;;;;;;;30.80;19.48;;;11.10;99.90;;;;;;5068147;28;20279;-63
2021/04/20 06:55:03;;;;;;;29.02;17.70;;;11.30;99.90;;;;;;5068228;28;20062;-64
2021/04/20 06:57:39;;;;;;;28.13;16.67;;;11.30;99.90;;;;;;5066632;28;20489;-65
2021/04/20 07:00:06;;;;;;;27.38;16.27;;;11.40;99.90;;;;;;5067445;28;20048;-66
2021/04/20 07:03:26;;;;;;;22.42;14.70;;;11.30;99.90;;;;;;5068318;28;20031;-65
2021/04/20 07:06:20;;;;;;;21.08;14.50;;;11.70;99.90;;;;;;4970681;28;20034;-65
2021/04/20 07:08:59;;;;;;;24.30;14.40;;;12.00;99.90;;;;;;5083507;28;20091;-66
2021/04/20 07:11:31;;;;;;;26.00;15.57;;;12.20;99.90;;;;;;5066974;28;20060;-66
2021/04/20 07:14:01;;;;;;;23.48;15.43;;;12.10;99.90;;;;;;5066197;28;20088;-64
2021/04/20 07:16:31;;;;;;;22.88;16.35;;;12.40;99.90;;;;;;5030719;28;20033;-65
2021/04/20 07:19:27;;;;;;;23.63;15.70;;;12.10;99.90;;;;;;5030419;28;20135;-65
2021/04/20 07:22:32;;;;;;;26.90;16.60;;;12.40;99.90;;;;;;5030500;28;20123;-65
2021/04/20 07:25:16;;;;;;;20.83;14.70;;;12.50;99.90;;;;;;5048514;28;20029;-64
2021/04/20 07:28:17;;;;;;;24.60;16.08;;;12.50;99.90;;;;;;5047952;28;20137;-63
2021/04/20 07:31:02;;;;;;;20.50;14.77;;;12.70;99.90;;;;;;5009015;28;20450;-66
2021/04/20 07:33:41;;;;;;;22.65;15.50;;;12.80;99.90;;;;;;5029734;28;20386;-65
2021/04/20 07:36:33;;;;;;;25.13;17.48;;;13.00;99.90;;;;;;5034047;28;20036;-63
2021/04/20 07:39:17;;;;;;;;;;;13.00;99.90;;;;;;5053573;28;20057;-64
2021/04/20 07:42:06;;;;;;;30.35;16.77;;;13.20;99.90;;;;;;5034905;28;20036;-65
2021/04/20 07:44:32;;;;;;;24.35;16.23;;;13.40;99.90;;;;;;5052592;28;20044;-64
2021/04/20 07:47:03;;;;;;;24.83;15.85;;;13.70;99.90;;;;;;5053011;28;20029;-63
2021/04/20 07:49:44;;;;;;;25.98;17.02;;;13.70;99.90;;;;;;5051238;28;20475;-73
2021/04/20 07:52:14;;;;;;;22.52;15.30;;;13.90;99.70;;;;;;5051586;28;20047;-71
2021/04/20 07:54:46;;;;;;;22.08;16.73;;;13.90;99.50;;;;;;5051360;28;20613;-72
2021/04/20 07:57:30;;;;;;;22.70;16.50;;;13.90;99.90;;;;;;5033474;28;20412;-72
2021/04/20 08:00:06;;;;;;;28.95;16.70;;;13.90;99.20;;;;;;5033514;28;20456;-72
2021/04/20 08:02:46;;;;;;;20.90;16.08;;;14.30;99.10;;;;;;5032868;28;20060;-72
2021/04/20 08:05:29;;;;;;;23.67;16.83;;;13.60;99.60;;;;;;5033733;28;20057;-71
2021/04/20 08:07:54;;;;;;;23.90;16.27;;;14.20;99.40;;;;;;5033732;28;20040;-71
2021/04/20 08:10:25;;;;;;;23.55;15.93;;;14.50;98.10;;;;;;5051299;28;20029;-73
2021/04/20 08:12:57;;;;;;;19.95;14.68;;;14.40;98.60;;;;;;5033735;28;20025;-72
2021/04/20 08:15:51;;;;;;;27.90;15.65;;;14.80;97.90;;;;;;5059168;28;20476;-72
2021/04/20 08:18:34;;;;;;;25.00;16.77;;;15.30;96.90;;;;;;5070080;28;20060;-71
2021/04/20 08:21:03;;;;;;;24.88;15.88;;;15.40;96.60;;;;;;5088565;28;20024;-72
2021/04/20 08:23:31;;;;;;;22.95;16.63;;;16.00;95.50;;;;;;5089157;28;20024;-72
2021/04/20 08:26:13;;;;;;;21.00;14.85;;;15.20;95.70;;;;;;5089891;28;20123;-72
2021/04/20 08:29:04;;;;;;;19.38;13.90;;;15.70;96.60;;;;;;5089593;28;20060;-73
2021/04/20 08:31:42;;;;;;;18.83;13.13;;;16.10;96.30;;;;;;5091701;28;20036;-72
2021/04/20 08:34:54;;;;;;;21.10;15.50;;;16.10;96.10;;;;;;5090116;28;20270;-72
2021/04/20 08:37:31;;;;;;;19.90;14.45;;;16.70;93.90;;;;;;4992090;28;20550;-73
2021/04/20 08:40:21;;;;;;;21.00;16.38;;;16.50;92.90;;;;;;4992528;28;20080;-74
2021/04/20 08:42:54;;;;;;;23.52;15.48;;;16.60;92.80;;;;;;5070624;28;20058;-71
2021/04/20 08:45:38;;;;;;;20.95;15.23;;;16.60;93.10;;;;;;5089191;28;20040;-73
2021/04/20 08:48:23;;;;;;;19.10;15.18;;;16.20;93.20;;;;;;5089252;28;20112;-72
2021/04/20 08:50:58;;;;;;;18.13;14.30;;;16.30;93.90;;;;;;5071912;28;20031;-64
2021/04/20 08:54:03;;;;;;;20.45;15.65;;;17.30;92.90;;;;;;5069191;28;20078;-72
2021/04/20 08:56:36;;;;;;;29.15;16.23;;;17.60;91.70;;;;;;5070028;28;20039;-72
2021/04/20 08:59:17;;;;;;;20.83;14.38;;;17.80;90.20;;;;;;5070818;28;20043;-72
2021/04/20 09:01:58;;;;;;;17.90;15.10;;;18.10;89.70;;;;;;5068292;28;20109;-72
2021/04/20 09:05:03;;;;;;;23.63;15.65;;;17.80;88.80;;;;;;5069050;28;20374;-73
2021/04/20 09:07:42;;;;;;;15.88;14.15;;;17.90;89.30;;;;;;5068684;28;20112;-72
2021/04/20 09:10:31;;;;;;;22.33;15.98;;;17.70;89.20;;;;;;5083049;28;20116;-72
2021/04/20 09:13:26;;;;;;;21.38;16.00;;;17.80;87.60;;;;;;5098576;28;20069;-72
2021/04/20 09:16:06;;;;;;;19.20;14.68;;;18.20;86.50;;;;;;5103624;28;20097;-71
2021/04/20 09:18:36;;;;;;;18.42;15.10;;;17.70;86.70;;;;;;5110200;28;20020;-70
2021/04/20 09:21:09;;;;;;;22.20;15.25;;;18.00;86.20;;;;;;5073849;28;20023;-71
2021/04/20 09:23:38;;;;;;;20.05;13.65;;;18.70;84.50;;;;;;5088064;28;20109;-75
2021/04/20 09:26:12;;;;;;;20.58;16.60;;;19.30;84.10;;;;;;5083980;28;20120;-74
2021/04/20 09:28:43;;;;;;;22.67;15.52;;;18.60;81.90;;;;;;5089912;28;20366;-71
2021/04/20 09:31:20;;;;;;;19.30;14.85;;;18.80;83.20;;;;;;5078859;28;20484;-73
2021/04/20 09:33:53;;;;;;;22.42;15.55;;;19.60;81.70;;;;;;5083128;28;20031;-69
2021/04/20 09:36:20;;;;;;;23.92;15.30;;;20.00;78.00;;;;;;5086773;28;20050;-74
2021/04/20 09:38:49;;;;;;;19.67;13.43;;;20.00;76.50;;;;;;5089328;28;20479;-71
2021/04/20 09:41:18;;;;;;;21.10;13.68;;;20.50;77.10;;;;;;5088616;28;20085;-66
2021/04/20 09:43:57;;;;;;;19.13;13.10;;;20.60;86.00;;;;;;5088696;28;20435;-67
2021/04/20 09:46:53;;;;;;;19.23;13.23;;;19.90;77.60;;;;;;5089928;28;20385;-67
2021/04/20 09:49:40;;;;;;;23.10;13.95;;;20.10;79.40;;;;;;5083802;28;20420;-66
2021/04/20 09:52:36;;;;;;;17.85;14.57;;;20.00;80.40;;;;;;5068994;28;20021;-66
2021/04/20 09:55:07;;;;;;;17.77;12.27;;;19.90;77.70;;;;;;5069788;28;20021;-66
2021/04/20 09:57:33;;;;;;;;;;;20.70;78.30;;;;;;5068660;28;20045;-67
2021/04/20 10:00:09;;;;;;;19.05;12.95;;;20.80;72.30;;;;;;5069614;28;20416;-66
2021/04/20 10:02:37;;;;;;;21.02;13.38;;;21.30;73.10;;;;;;5089299;28;20077;-65
2021/04/20 10:05:09;;;;;;;14.85;12.45;;;21.20;69.40;;;;;;5089826;28;20532;-67
2021/04/20 10:08:02;;;;;;;14.88;11.98;;;21.40;70.90;;;;;;5088122;28;20032;-69
2021/04/20 10:10:43;;;;;;;15.73;11.82;;;21.90;70.30;;;;;;5089132;28;20028;-67
2021/04/20 10:13:46;;;;;;;15.25;11.30;;;21.60;70.10;;;;;;5089602;28;20210;-67
2021/04/20 10:16:35;;;;;;;16.20;11.82;;;21.40;67.10;;;;;;5089821;28;20039;-65
2021/04/20 10:19:39;;;;;;;15.38;12.05;;;21.50;70.80;;;;;;5057557;28;20512;-65
2021/04/20 10:22:25;;;;;;;16.42;12.25;;;21.10;65.60;;;;;;5069574;28;20028;-66
2021/04/20 10:25:14;;;;;;;13.73;11.93;;;21.10;64.90;;;;;;5068416;28;20024;-66
2021/04/20 10:27:43;;;;;;;13.70;11.60;;;20.50;66.70;;;;;;5067767;28;20104;-66
2021/04/20 10:30:19;;;;;;;14.88;12.55;;;20.40;65.50;;;;;;5091918;28;20114;-67
2021/04/20 10:32:51;;;;;;;13.00;10.65;;;19.80;65.30;;;;;;5107401;28;20219;-66
2021/04/20 10:35:23;;;;;;;13.00;11.52;;;20.30;69.90;;;;;;5108422;28;20223;-65
2021/04/20 10:37:55;;;;;;;12.07;9.55;;;20.70;62.80;;;;;;5107865;28;20035;-68
2021/04/20 10:40:25;;;;;;;13.60;9.98;;;21.10;67.50;;;;;;5109172;28;20032;-65
2021/04/20 10:42:51;;;;;;;17.00;10.50;;;21.30;66.70;;;;;;5109568;28;20179;-65
2021/04/20 10:45:21;;;;;;;12.05;10.10;;;21.70;62.80;;;;;;5109082;28;20084;-65
2021/04/20 10:47:50;;;;;;;12.18;10.18;;;21.70;63.60;;;;;;5107758;28;20043;-64
2021/04/20 10:50:25;;;;;;;13.18;11.02;;;21.50;65.10;;;;;;5083324;28;20119;-65
2021/04/20 10:53:04;;;;;;;16.42;10.45;;;21.60;63.00;;;;;;5069669;28;20025;-65
2021/04/20 10:55:33;;;;;;;14.65;9.77;;;21.70;61.80;;;;;;5066546;28;20082;-65
2021/04/20 10:58:00;;;;;;;12.70;11.15;;;22.10;61.70;;;;;;5068404;28;20159;-66
2021/04/20 11:00:29;;;;;;;16.40;9.25;;;21.80;58.10;;;;;;5066368;28;20488;-66
2021/04/20 11:02:58;;;;;;;11.85;10.65;;;21.80;60.60;;;;;;5067262;28;20100;-67
2021/04/20 11:05:25;;;;;;;13.25;9.98;;;22.60;56.70;;;;;;5067105;28;20025;-66
2021/04/20 11:07:52;;;;;;;12.27;9.30;;;22.60;58.60;;;;;;5067329;28;20051;-67
2021/04/20 11:10:25;;;;;;;12.38;9.98;;;22.60;59.40;;;;;;5070717;28;20028;-65
2021/04/20 11:12:53;;;;;;;13.80;9.88;;;22.70;57.70;;;;;;5072324;28;20400;-66
2021/04/20 11:15:29;;;;;;;13.43;9.93;;;23.40;57.00;;;;;;5057429;28;20158;-66
2021/04/20 11:17:54;;;;;;;12.65;8.95;;;23.30;56.80;;;;;;5034338;28;20072;-67
2021/04/20 11:20:41;;;;;;;14.23;9.43;;;23.60;56.60;;;;;;5033637;28;20059;-65
2021/04/20 11:23:07;;;;;;;9.82;7.55;;;23.70;53.40;;;;;;5033698;28;20021;-66
2021/04/20 11:25:54;;;;;;;9.95;7.72;;;24.00;67.70;;;;;;5032817;28;20106;-66
2021/04/20 11:28:32;;;;;;;8.43;7.30;;;24.60;51.90;;;;;;5051764;28;20108;-67
2021/04/20 11:31:06;;;;;;;9.50;6.97;;;24.60;51.00;;;;;;5051262;28;20025;-67
2021/04/20 11:34:14;;;;;;;9.63;8.52;;;24.80;52.90;;;;;;5033092;28;20043;-68
2021/04/20 11:36:43;;;;;;;8.55;7.38;;;25.20;51.60;;;;;;5022556;28;20083;-66
2021/04/20 11:39:19;;;;;;;8.40;7.47;;;25.00;50.80;;;;;;5009289;28;20056;-66
2021/04/20 11:42:03;;;;;;;10.18;7.50;;;25.40;50.00;;;;;;5009010;28;20053;-66
2021/04/20 11:44:54;;;;;;;7.90;7.10;;;25.50;49.20;;;;;;5008833;28;20036;-66
2021/04/20 11:47:21;;;;;;;8.98;7.28;;;25.60;48.90;;;;;;4993314;28;20037;-66
2021/04/20 11:50:04;;;;;;;7.05;5.97;;;24.00;49.10;;;;;;5008722;28;20057;-66
2021/04/20 11:52:32;;;;;;;7.40;5.75;;;22.30;51.60;;;;;;5009431;28;20181;-65
2021/04/20 11:55:13;;;;;;;8.88;6.47;;;22.70;50.40;;;;;;4993085;28;20562;-65
2021/04/20 11:57:41;;;;;;;6.07;5.28;;;23.30;50.00;;;;;;4992444;28;20136;-66
2021/04/20 12:00:09;;;;;;;7.93;6.50;;;22.50;50.60;;;;;;4992866;28;20470;-66
2021/04/20 12:02:37;;;;;;;7.25;6.53;;;22.60;50.00;;;;;;5008917;28;20121;-67
2021/04/20 12:05:21;;;;;;;6.72;6.10;;;22.20;50.50;;;;;;4992917;28;20038;-68
2021/04/20 12:07:49;;;;;;;5.60;4.95;;;22.20;51.90;;;;;;4992487;28;20026;-66
2021/04/20 12:10:16;;;;;;;6.63;5.35;;;23.00;49.50;;;;;;5014665;28;20029;-64
2021/04/20 12:12:42;;;;;;;6.53;5.70;;;22.60;48.30;;;;;;5050988;28;20021;-73
2021/04/20 12:15:14;;;;;;;6.53;5.65;;;22.80;50.10;;;;;;5055219;28;20193;-73
2021/04/20 12:17:42;;;;;;;7.30;6.22;;;23.10;48.00;;;;;;5069592;28;20461;-72
2021/04/20 12:20:13;;;;;;;9.50;5.47;;;23.30;48.50;;;;;;5069505;28;20116;-73
2021/04/20 12:22:40;;;;;;;9.15;5.15;;;23.30;47.40;;;;;;5069766;28;20031;-74
2021/04/20 12:25:07;;;;;;;5.93;5.32;;;23.30;46.70;;;;;;5071431;28;20028;-72
2021/04/20 12:27:34;;;;;;;5.50;4.90;;;22.90;46.10;;;;;;5069971;28;20033;-74
2021/04/20 12:30:03;;;;;;;5.70;4.95;;;23.40;45.90;;;;;;5069281;28;20020;-74
2021/04/20 12:32:31;;;;;;;5.00;4.47;;;22.50;46.70;;;;;;5068785;28;20025;-73
2021/04/20 12:34:59;;;;;;;5.25;4.45;;;23.00;46.30;;;;;;5071311;28;20371;-73
2021/04/20 12:37:31;;;;;;;6.60;5.70;;;23.40;45.90;;;;;;5070903;28;20033;-74
2021/04/20 12:40:02;;;;;;;7.60;5.28;;;23.20;46.20;;;;;;5076428;28;20367;-73
2021/04/20 12:42:37;;;;;;;7.53;5.72;;;23.10;46.10;;;;;;5090332;28;20039;-73
2021/04/20 12:45:15;;;;;;;10.18;6.93;;;22.70;47.40;;;;;;5091248;28;20043;-73
2021/04/20 12:47:41;;;;;;;7.95;5.57;;;23.10;46.50;;;;;;5088805;28;20039;-73
2021/04/20 12:50:10;;;;;;;5.60;4.93;;;23.20;46.40;;;;;;5090209;28;20024;-74
2021/04/20 12:52:42;;;;;;;7.30;5.07;;;23.70;45.50;;;;;;5087426;28;20039;-72
2021/04/20 12:55:22;;;;;;;5.60;5.07;;;24.40;46.90;;;;;;5089071;28;20092;-73
2021/04/20 12:57:50;;;;;;;7.47;4.93;;;24.70;44.80;;;;;;5088169;28;20039;-73
2021/04/20 13:00:23;;;;;;;6.20;4.70;;;24.60;44.70;;;;;;5088947;28;20165;-71
2021/04/20 13:02:51;;;;;;;10.95;5.57;;;23.70;45.50;;;;;;5090413;28;20142;-73